createdAt,value
2019-02-26T08:45:09.225Z,4.97
2019-02-26T08:47:37.919Z,3.92
2019-02-26T08:50:10.119Z,4.85
2019-02-26T08:52:39.515Z,4.42
2019-02-26T08:55:12.911Z,5.60
2019-02-26T08:57:41.204Z,4.33
2019-02-26T09:00:15.616Z,6.00
2019-02-26T09:02:45.923Z,11.75
2019-02-26T09:05:14.832Z,7.97
2019-02-26T09:07:45.570Z,6.12
2019-02-26T09:10:17.561Z,4.62
2019-02-26T09:12:46.869Z,6.17
2019-02-26T09:15:18.068Z,5.87
2019-02-26T09:17:46.791Z,6.97
2019-02-26T09:20:17.792Z,5.55
2019-02-26T09:22:50.193Z,4.97
2019-02-26T09:25:16.802Z,5.95
2019-02-26T09:27:45.541Z,5.85
2019-02-26T09:30:16.320Z,6.75
2019-02-26T09:32:45.192Z,6.12
2019-02-26T09:35:20.330Z,6.83
2019-02-26T09:37:50.614Z,4.72
2019-02-26T09:40:23.511Z,4.97
2019-02-26T09:42:54.527Z,5.10
2019-02-26T09:45:28.551Z,5.20
2019-02-26T09:47:57.742Z,5.53
2019-02-26T09:50:25.904Z,5.20
2019-02-26T09:52:58.154Z,4.33
2019-02-26T09:55:24.956Z,3.95
2019-02-26T09:57:53.691Z,4.30
2019-02-26T10:00:26.096Z,4.22
2019-02-26T10:02:53.787Z,4.10
2019-02-26T10:05:22.481Z,4.03
2019-02-26T10:07:53.896Z,5.08
2019-02-26T10:10:22.785Z,4.22
2019-02-26T10:12:53.859Z,3.80
2019-02-26T10:15:21.862Z,3.80
2019-02-26T10:17:50.644Z,3.70
2019-02-26T10:20:24.830Z,3.17
2019-02-26T10:22:53.251Z,4.05
2019-02-26T10:25:23.250Z,3.30
2019-02-26T10:27:53.208Z,3.42
2019-02-26T10:30:22.969Z,2.98
2019-02-26T10:32:51.668Z,3.17
2019-02-26T10:35:32.492Z,3.27
2019-02-26T10:37:57.117Z,4.28
2019-02-26T10:40:34.785Z,5.45
2019-02-26T10:42:56.828Z,7.12
2019-02-26T10:45:29.564Z,7.50
2019-02-26T10:47:59.375Z,7.83
2019-02-26T10:50:31.708Z,6.80
2019-02-26T10:53:06.733Z,6.25
2019-02-26T10:55:33.902Z,6.80
2019-02-26T10:58:04.813Z,6.35
2019-02-26T11:00:34.740Z,6.92
2019-02-26T11:03:01.978Z,6.60
2019-02-26T11:05:30.679Z,7.50
2019-02-26T11:08:02.177Z,6.62
2019-02-26T11:10:29.784Z,5.58
2019-02-26T11:12:59.475Z,7.95
2019-02-26T11:15:31.052Z,6.92
2019-02-26T11:17:58.970Z,6.08
2019-02-26T11:20:30.602Z,8.35
2019-02-26T11:22:58.330Z,6.75
2019-02-26T11:25:27.575Z,8.03
2019-02-26T11:27:56.689Z,7.33
2019-02-26T11:30:31.969Z,7.35
2019-02-26T11:33:02.509Z,6.17
2019-02-26T11:35:29.783Z,5.22
2019-02-26T11:37:58.538Z,5.53
2019-02-26T11:40:30.529Z,6.40
2019-02-26T11:43:00.075Z,5.90
2019-02-26T11:45:28.537Z,5.35
2019-02-26T11:47:58.093Z,5.80
2019-02-26T11:50:28.505Z,4.83
2019-02-26T11:52:57.714Z,4.80
2019-02-26T11:55:29.203Z,5.22
2019-02-26T11:57:56.737Z,5.40
2019-02-26T12:00:39.175Z,4.75
2019-02-26T12:03:06.619Z,5.20
2019-02-26T12:05:36.685Z,4.70
2019-02-26T12:08:06.173Z,4.28
2019-02-26T12:10:37.197Z,4.75
2019-02-26T12:13:05.428Z,4.33
2019-02-26T12:15:36.316Z,3.92
2019-02-26T12:18:04.767Z,3.95
2019-02-26T12:20:35.469Z,3.72
2019-02-26T12:23:03.787Z,4.17
2019-02-26T12:25:32.551Z,3.85
2019-02-26T12:28:02.864Z,3.87
2019-02-26T12:30:32.361Z,5.33
2019-02-26T12:33:02.027Z,4.20
2019-02-26T12:35:33.468Z,3.95
2019-02-26T12:38:17.338Z,3.90
2019-02-26T12:40:31.994Z,4.37
2019-02-26T12:43:02.011Z,4.40
2019-02-26T12:45:31.843Z,4.28
2019-02-26T12:48:01.397Z,3.83
2019-02-26T12:50:32.987Z,3.85
2019-02-26T12:53:00.504Z,3.52
2019-02-26T12:55:31.850Z,3.50
2019-02-26T12:57:59.678Z,4.22
2019-02-26T13:00:28.711Z,3.50
2019-02-26T13:02:58.667Z,3.95
2019-02-26T13:05:27.411Z,3.55
2019-02-26T13:07:56.134Z,3.52
2019-02-26T13:10:25.849Z,3.92
2019-02-26T13:12:59.282Z,3.85
2019-02-26T13:15:24.952Z,4.17
2019-02-26T13:17:55.199Z,4.00
2019-02-26T13:20:27.104Z,3.90
2019-02-26T13:25:28.021Z,4.12
2019-02-26T13:27:56.755Z,3.10
2019-02-26T13:30:27.846Z,3.52
2019-02-26T13:35:26.939Z,3.45
2019-02-26T13:37:57.741Z,3.83
2019-02-26T13:40:26.584Z,3.27
2019-02-26T13:45:26.813Z,4.17
2019-02-26T13:48:00.995Z,3.65
2019-02-26T13:50:32.479Z,3.83
2019-02-26T13:53:01.426Z,3.02
2019-02-26T13:55:30.122Z,3.15
2019-02-26T13:57:58.837Z,3.67
2019-02-26T14:00:28.916Z,3.95
2019-02-26T14:02:57.616Z,3.10
2019-02-26T14:05:26.302Z,3.72
2019-02-26T14:07:55.079Z,4.05
2019-02-26T14:10:24.789Z,3.40
2019-02-26T14:12:53.795Z,3.60
2019-02-26T14:15:27.089Z,3.83
2019-02-26T14:17:55.784Z,4.05
2019-02-26T14:20:24.550Z,3.70
2019-02-26T14:22:53.243Z,3.80
2019-02-26T14:25:21.930Z,3.58
2019-02-26T14:27:56.062Z,3.60
2019-02-26T14:30:24.767Z,4.12
2019-02-26T14:32:53.704Z,4.33
2019-02-26T14:35:22.519Z,5.00
2019-02-26T14:37:51.204Z,4.85
2019-02-26T14:40:21.666Z,4.83
2019-02-26T14:42:50.815Z,3.83
2019-02-26T14:45:27.272Z,5.05
2019-02-26T14:47:55.972Z,4.90
2019-02-26T14:50:26.336Z,4.90
2019-02-26T14:52:55.523Z,4.65
2019-02-26T14:55:24.217Z,3.77
2019-02-26T14:57:53.004Z,3.75
2019-02-26T15:00:24.612Z,4.85
2019-02-26T15:02:53.364Z,4.33
2019-02-26T15:05:22.102Z,5.33
2019-02-26T15:07:50.792Z,5.55
2019-02-26T15:10:20.537Z,4.60
2019-02-26T15:12:49.492Z,4.03
2019-02-26T15:15:19.250Z,3.80
2019-02-26T15:17:47.955Z,4.95
2019-02-26T15:20:18.588Z,4.22
2019-02-26T15:22:47.524Z,4.45
2019-02-26T15:25:24.759Z,4.42
2019-02-26T15:27:53.836Z,5.08
2019-02-26T15:30:24.132Z,4.00
2019-02-26T15:32:52.880Z,4.75
2019-02-26T15:35:21.585Z,4.95
2019-02-26T15:37:50.307Z,4.35
2019-02-26T15:40:23.085Z,4.40
2019-02-26T15:42:53.066Z,4.47
2019-02-26T15:45:32.152Z,4.12
2019-02-26T15:48:03.745Z,3.50
2019-02-26T15:50:31.260Z,3.95
2019-02-26T15:53:00.204Z,3.02
2019-02-26T15:55:32.457Z,3.27
2019-02-26T15:58:04.405Z,2.55
2019-02-26T16:00:44.499Z,3.85
2019-02-26T16:03:13.177Z,3.35
2019-02-26T16:05:41.914Z,3.05
2019-02-26T16:08:10.606Z,3.37
2019-02-26T16:10:39.316Z,3.42
2019-02-26T16:13:08.046Z,3.67
2019-02-26T16:15:38.760Z,3.37
2019-02-26T16:18:07.454Z,3.95
2019-02-26T16:20:39.146Z,2.98
2019-02-26T16:23:07.906Z,3.92
2019-02-26T16:25:36.690Z,4.15
2019-02-26T16:28:05.575Z,4.20
2019-02-26T16:30:34.257Z,3.40
2019-02-26T16:33:03.009Z,4.35
2019-02-26T16:35:31.707Z,4.45
2019-02-26T16:38:00.418Z,4.53
2019-02-26T16:40:32.316Z,3.60
2019-02-26T16:42:59.601Z,3.75
2019-02-26T16:45:28.913Z,3.20
2019-02-26T16:47:57.634Z,4.70
2019-02-26T16:50:29.108Z,5.35
2019-02-26T16:53:00.050Z,4.15
2019-02-26T16:55:28.196Z,3.45
2019-02-26T16:57:56.934Z,4.53
2019-02-26T17:00:30.184Z,4.15
2019-02-26T17:03:00.767Z,5.35
2019-02-26T17:05:29.408Z,3.35
2019-02-26T17:07:58.447Z,6.53
2019-02-26T17:10:30.306Z,4.50
2019-02-26T17:13:01.903Z,4.40
2019-02-26T17:15:35.853Z,4.62
2019-02-26T17:18:04.592Z,4.15
2019-02-26T17:20:33.272Z,4.80
2019-02-26T17:23:02.116Z,5.28
2019-02-26T17:25:30.824Z,5.30
2019-02-26T17:27:59.595Z,4.62
2019-02-26T17:30:28.340Z,4.83
2019-02-26T17:32:57.012Z,5.05
2019-02-26T17:35:28.727Z,4.28
2019-02-26T17:37:56.104Z,4.25
2019-02-26T17:40:27.084Z,5.62
2019-02-26T17:42:55.820Z,5.40
2019-02-26T17:45:29.930Z,5.22
2019-02-26T17:47:58.625Z,6.10
2019-02-26T17:50:30.435Z,4.53
2019-02-26T17:52:59.157Z,5.10
2019-02-26T17:55:28.369Z,5.10
2019-02-26T17:57:57.114Z,5.87
2019-02-26T18:00:28.172Z,8.30
2019-02-26T18:02:56.872Z,7.97
2019-02-26T18:05:25.619Z,6.55
2019-02-26T18:07:54.363Z,9.55
2019-02-26T18:10:25.435Z,9.63
2019-02-26T18:12:54.206Z,11.28
2019-02-26T18:15:22.905Z,9.20
2019-02-26T18:17:52.475Z,13.58
2019-02-26T18:20:22.860Z,10.30
2019-02-26T18:22:51.577Z,9.28
2019-02-26T18:25:24.674Z,7.95
2019-02-26T18:27:55.247Z,13.18
2019-02-26T18:30:25.674Z,13.45
2019-02-26T18:32:57.399Z,16.10
2019-02-26T18:35:24.813Z,16.45
2019-02-26T18:37:53.535Z,14.35
2019-02-26T18:40:22.427Z,17.77
2019-02-26T18:42:51.113Z,16.10
2019-02-26T18:45:30.270Z,13.32
2019-02-26T18:47:58.989Z,16.50
2019-02-26T18:50:29.537Z,14.80
2019-02-26T18:52:58.681Z,17.45
2019-02-26T18:55:32.468Z,17.37
2019-02-26T18:57:59.896Z,17.32
2019-02-26T19:00:35.378Z,15.28
2019-02-26T19:03:04.136Z,11.63
2019-02-26T19:05:32.836Z,11.38
2019-02-26T19:08:05.596Z,13.83
2019-02-26T19:10:32.160Z,14.43
2019-02-26T19:13:03.220Z,15.80
2019-02-26T19:15:34.960Z,10.82
2019-02-26T19:18:03.686Z,11.43
2019-02-26T19:20:37.644Z,16.17
2019-02-26T19:23:06.401Z,13.80
2019-02-26T19:25:35.198Z,16.20
2019-02-26T19:28:04.319Z,12.85
2019-02-26T19:30:36.727Z,17.05
2019-02-26T19:33:04.178Z,15.20
2019-02-26T19:35:38.187Z,12.65
2019-02-26T19:38:05.130Z,11.75
2019-02-26T19:40:40.070Z,13.58
2019-02-26T19:43:08.803Z,15.58
2019-02-26T19:45:37.536Z,12.20
2019-02-26T19:48:06.308Z,11.68
2019-02-26T19:50:35.431Z,13.40
2019-02-26T19:53:04.176Z,15.50
2019-02-26T19:55:35.774Z,11.57
2019-02-26T19:58:06.692Z,14.87
2019-02-26T20:00:35.015Z,16.90
2019-02-26T20:03:05.517Z,12.28
2019-02-26T20:05:34.047Z,16.62
2019-02-26T20:08:05.332Z,14.25
2019-02-26T20:10:33.213Z,12.53
2019-02-26T20:13:03.901Z,13.45
2019-02-26T20:15:34.087Z,17.87
2019-02-26T20:18:04.625Z,14.87
2019-02-26T20:20:41.075Z,16.40
2019-02-26T20:23:09.785Z,18.20
2019-02-26T20:25:42.545Z,17.90
2019-02-26T20:28:08.894Z,13.68
2019-02-26T20:30:37.703Z,12.53
2019-02-26T20:33:06.404Z,12.70
2019-02-26T20:35:35.108Z,19.77
2019-02-26T20:38:04.086Z,17.50
2019-02-26T20:40:32.993Z,15.28
2019-02-26T20:43:03.564Z,15.72
2019-02-26T20:45:32.366Z,19.02
2019-02-26T20:48:03.882Z,12.68
2019-02-26T20:50:31.466Z,16.90
2019-02-26T20:53:00.227Z,15.88
2019-02-26T20:55:33.744Z,14.03
2019-02-26T20:58:02.648Z,15.65
2019-02-26T21:00:32.514Z,17.30
2019-02-26T21:03:01.364Z,14.03
2019-02-26T21:05:32.251Z,19.57
2019-02-26T21:08:01.029Z,19.12
2019-02-26T21:10:29.748Z,17.17
2019-02-26T21:13:01.642Z,12.40
2019-02-26T21:15:28.939Z,20.48
2019-02-26T21:17:58.595Z,23.25
2019-02-26T21:20:27.864Z,23.52
2019-02-26T21:22:56.618Z,14.13
2019-02-26T21:25:25.448Z,20.37
2019-02-26T21:27:55.345Z,18.37
2019-02-26T21:30:25.440Z,16.60
2019-02-26T21:32:57.795Z,23.87
2019-02-26T21:35:24.551Z,21.57
2019-02-26T21:37:53.267Z,18.27
2019-02-26T21:40:22.103Z,12.60
2019-02-26T21:42:50.896Z,18.32
2019-02-26T21:45:19.675Z,16.90
2019-02-26T21:47:48.361Z,16.00
2019-02-26T21:50:17.256Z,14.28
2019-02-26T21:52:59.303Z,13.50
2019-02-26T21:55:16.559Z,16.30
2019-02-26T21:57:45.350Z,10.68
2019-02-26T22:00:20.809Z,12.68
2019-02-26T22:02:51.936Z,10.45
2019-02-26T22:05:19.895Z,12.28
2019-02-26T22:07:52.002Z,12.63
2019-02-26T22:10:21.952Z,13.28
2019-02-26T22:12:56.633Z,13.78
2019-02-26T22:15:23.431Z,10.30
2019-02-26T22:17:52.143Z,11.53
2019-02-26T22:20:35.207Z,10.50
2019-02-26T22:22:52.426Z,9.73
2019-02-26T22:25:21.124Z,8.63
2019-02-26T22:27:49.820Z,9.00
2019-02-26T22:30:22.048Z,8.88
2019-02-26T22:32:49.743Z,9.23
2019-02-26T22:35:18.436Z,7.87
2019-02-26T22:37:47.128Z,14.43
2019-02-26T22:40:16.026Z,12.58
2019-02-26T22:42:44.767Z,11.28
2019-02-26T22:45:14.858Z,12.68
2019-02-26T22:47:44.639Z,9.95
2019-02-26T22:50:16.816Z,10.30
2019-02-26T22:52:45.573Z,10.03
2019-02-26T22:55:17.596Z,11.48
2019-02-26T22:57:46.590Z,8.98
2019-02-26T23:00:48.410Z,12.70
2019-02-26T23:03:14.336Z,9.15
2019-02-26T23:05:43.028Z,10.28
2019-02-26T23:08:12.675Z,9.78
2019-02-26T23:10:41.732Z,11.05
2019-02-26T23:13:10.447Z,8.75
2019-02-26T23:15:45.878Z,11.78
2019-02-26T23:18:13.835Z,10.40
2019-02-26T23:20:43.389Z,9.25
2019-02-26T23:23:12.430Z,7.00
2019-02-26T23:25:42.027Z,14.13
2019-02-26T23:28:11.985Z,10.10
2019-02-26T23:30:41.591Z,9.88
2019-02-26T23:33:10.378Z,8.23
2019-02-26T23:35:39.230Z,9.00
2019-02-26T23:38:08.485Z,7.42
2019-02-26T23:40:39.359Z,9.10
2019-02-26T23:43:11.803Z,11.48
2019-02-26T23:45:38.934Z,12.73
2019-02-26T23:48:08.844Z,12.50
2019-02-26T23:50:38.144Z,8.38
2019-02-26T23:53:07.451Z,8.70
2019-02-26T23:55:36.453Z,9.10
2019-02-26T23:58:05.564Z,7.75
